Time;durP1;ratioP1;P1;durP2;ratioP2;P2;SDS_P1;SDS_P2;PMS_P1;PMS_P2;Temp;Humidity;BMP_temperature;BMP_pressure;BME280_temperature;BME280_humidity;BME280_pressure;Samples;Min_cycle;Max_cycle;Signal;HPM_P1;HPM_P2
2023/02/28 00:00:28;;;;;;;4.25;3.05;;;2.00;58.50;;;;;;4964177;28;20200;-71
2023/02/28 00:03:14;;;;;;;5.00;2.90;;;2.10;58.70;;;;;;4972035;28;20334;-71
2023/02/28 00:06:00;;;;;;;3.17;2.55;;;2.10;59.10;;;;;;4973169;28;20224;-71
2023/02/28 00:08:45;;;;;;;3.72;2.75;;;2.10;59.00;;;;;;4966611;28;20228;-71
2023/02/28 00:11:32;;;;;;;5.07;2.90;;;2.10;59.10;;;;;;4971026;28;20215;-71
2023/02/28 00:14:18;;;;;;;3.55;2.90;;;2.10;59.60;;;;;;4972121;28;20223;-71
2023/02/28 00:17:03;;;;;;;3.67;2.70;;;2.00;59.90;;;;;;4972020;28;20786;-71
2023/02/28 00:19:50;;;;;;;4.65;3.17;;;2.00;60.60;;;;;;4968980;28;20205;-71
2023/02/28 00:22:36;;;;;;;3.75;3.10;;;2.00;61.30;;;;;;4970667;28;20212;-71
2023/02/28 00:25:24;;;;;;;4.35;2.78;;;2.00;60.90;;;;;;4967953;28;20901;-71
2023/02/28 00:28:11;;;;;;;5.25;3.42;;;2.00;61.20;;;;;;4968978;28;20228;-71
2023/02/28 00:30:57;;;;;;;5.35;3.10;;;2.00;61.30;;;;;;4966836;28;20212;-71
2023/02/28 00:33:42;;;;;;;4.50;3.08;;;1.90;61.20;;;;;;4970230;28;20212;-71
2023/02/28 00:36:28;;;;;;;4.38;3.08;;;1.90;61.20;;;;;;4968837;28;20223;-71
2023/02/28 00:39:13;;;;;;;4.43;3.30;;;1.90;61.90;;;;;;4965193;28;20432;-71
2023/02/28 00:41:59;;;;;;;6.75;3.50;;;1.90;61.60;;;;;;4972989;28;20295;-71
2023/02/28 00:44:46;;;;;;;4.50;3.60;;;1.90;62.00;;;;;;4970242;28;20297;-71
2023/02/28 00:47:32;;;;;;;5.65;3.30;;;1.90;62.20;;;;;;4970583;28;20723;-71
2023/02/28 00:50:18;;;;;;;4.20;3.10;;;1.90;62.30;;;;;;4968207;28;20788;-71
2023/02/28 00:53:03;;;;;;;6.18;3.47;;;1.80;62.80;;;;;;4968316;28;20215;-71
2023/02/28 00:55:50;;;;;;;5.07;3.25;;;1.80;63.10;;;;;;4971032;28;20260;-71
2023/02/28 00:58:35;;;;;;;5.97;4.00;;;1.70;63.70;;;;;;4972047;28;20273;-71
2023/02/28 01:01:22;;;;;;;4.93;3.55;;;1.70;64.20;;;;;;4969689;28;20203;-71
2023/02/28 01:04:08;;;;;;;5.25;3.70;;;1.60;64.90;;;;;;4968919;28;20208;-71
2023/02/28 01:06:54;;;;;;;6.40;3.83;;;1.50;65.60;;;;;;4972426;28;20271;-71
2023/02/28 01:09:39;;;;;;;4.43;3.50;;;1.50;66.20;;;;;;4960572;28;20229;-71
2023/02/28 01:12:25;;;;;;;5.63;3.60;;;1.60;66.40;;;;;;4965516;28;20965;-71
2023/02/28 01:15:12;;;;;;;5.47;3.58;;;1.50;66.30;;;;;;4970602;28;20276;-71
2023/02/28 01:17:59;;;;;;;12.43;3.72;;;1.60;66.60;;;;;;4968118;28;20224;-71
2023/02/28 01:20:45;;;;;;;5.38;4.07;;;1.50;67.00;;;;;;4963458;28;20690;-71
2023/02/28 01:23:31;;;;;;;8.10;3.55;;;1.50;67.10;;;;;;4968546;28;20772;-71
2023/02/28 01:26:19;;;;;;;6.03;3.92;;;1.60;67.30;;;;;;4967977;28;20314;-71
2023/02/28 01:29:05;;;;;;;5.80;4.25;;;1.50;67.60;;;;;;4964153;28;20272;-71
2023/02/28 01:31:51;;;;;;;7.05;3.75;;;1.60;67.20;;;;;;4968964;28;20219;-71
2023/02/28 01:34:38;;;;;;;4.78;3.72;;;1.50;67.60;;;;;;4967123;28;20256;-71
2023/02/28 01:37:24;;;;;;;5.78;4.10;;;1.50;67.70;;;;;;4969202;28;20386;-71
2023/02/28 01:40:10;;;;;;;5.43;3.90;;;1.40;68.00;;;;;;4964778;28;20204;-71
2023/02/28 01:42:56;;;;;;;4.05;3.35;;;1.40;68.70;;;;;;4969860;28;20291;-71
2023/02/28 01:45:42;;;;;;;6.13;4.47;;;1.40;69.20;;;;;;4962495;28;20212;-71
2023/02/28 01:48:33;;;;;;;4.55;4.00;;;1.30;70.10;;;;;;4964617;28;20204;-73
2023/02/28 01:51:25;;;;;;;4.65;4.15;;;1.30;70.40;;;;;;4968775;28;20586;-71
2023/02/28 01:54:16;;;;;;;4.60;4.15;;;1.30;70.60;;;;;;4968840;28;20204;-71
2023/02/28 01:57:05;;;;;;;7.35;4.22;;;1.20;71.00;;;;;;4969645;28;20227;-71
2023/02/28 01:59:58;;;;;;;8.32;4.63;;;1.20;71.30;;;;;;4966336;28;20241;-71
2023/02/28 02:02:47;;;;;;;5.50;3.83;;;1.10;72.50;;;;;;4970140;28;20256;-71
2023/02/28 02:05:34;;;;;;;4.10;3.63;;;1.20;72.50;;;;;;4965254;28;20209;-71
2023/02/28 02:08:24;;;;;;;4.75;4.13;;;1.20;72.70;;;;;;4969966;28;20203;-71
2023/02/28 02:11:12;;;;;;;5.40;4.32;;;1.20;72.70;;;;;;4965024;28;20212;-71
2023/02/28 02:14:41;;;;;;;5.30;4.10;;;1.20;72.40;;;;;;4971135;28;20772;-71
2023/02/28 02:17:34;;;;;;;7.45;4.78;;;1.20;72.60;;;;;;4968289;28;20231;-71
2023/02/28 02:20:53;;;;;;;4.80;4.00;;;1.20;72.50;;;;;;4968847;28;20203;-71
2023/02/28 02:24:21;;;;;;;6.07;4.40;;;1.20;73.00;;;;;;4975527;28;20728;-71
2023/02/28 02:27:19;;;;;;;6.63;3.97;;;1.20;72.90;;;;;;4931520;29;20237;-71
2023/02/28 02:30:44;;;;;;;6.10;4.28;;;1.30;73.00;;;;;;4968885;28;20239;-71
2023/02/28 02:34:06;;;;;;;13.00;4.47;;;1.20;73.60;;;;;;4970683;28;20217;-72
2023/02/28 02:37:00;;;;;;;9.15;4.72;;;1.20;73.00;;;;;;4970334;28;20228;-71
2023/02/28 02:39:53;;;;;;;5.78;4.43;;;1.20;73.10;;;;;;4969504;28;20209;-71
2023/02/28 02:42:46;;;;;;;6.57;5.03;;;1.20;73.10;;;;;;4972882;28;20611;-70
2023/02/28 02:45:36;;;;;;;5.93;4.18;;;1.20;73.10;;;;;;4970719;28;20296;-72
2023/02/28 02:48:27;;;;;;;8.45;4.82;;;1.20;73.10;;;;;;4966781;28;20473;-71
2023/02/28 02:51:17;;;;;;;6.10;3.83;;;1.10;73.70;;;;;;4971983;28;20993;-71
2023/02/28 02:54:09;;;;;;;5.38;4.38;;;1.10;74.10;;;;;;4971577;28;20214;-71
2023/02/28 02:56:59;;;;;;;6.78;4.63;;;1.10;74.40;;;;;;4963153;28;20232;-73
2023/02/28 02:59:45;;;;;;;5.28;4.20;;;1.10;74.40;;;;;;4970630;28;20291;-71
2023/02/28 03:02:34;;;;;;;5.75;4.20;;;1.10;74.40;;;;;;4967917;28;20212;-72
2023/02/28 03:05:24;;;;;;;10.02;5.38;;;1.00;74.50;;;;;;4973648;28;20225;-71
2023/02/28 03:08:11;;;;;;;5.10;4.43;;;1.00;74.70;;;;;;4969006;28;20241;-70
2023/02/28 03:10:59;;;;;;;6.90;4.50;;;1.00;75.30;;;;;;4972237;28;20735;-72
2023/02/28 03:13:59;;;;;;;4.75;4.28;;;1.00;74.80;;;;;;4973825;28;20231;-71
2023/02/28 03:16:58;;;;;;;5.10;4.55;;;0.90;75.70;;;;;;4969681;28;20330;-71
2023/02/28 03:19:55;;;;;;;7.45;5.05;;;0.90;76.70;;;;;;4968629;28;20280;-71
2023/02/28 03:22:58;;;;;;;6.03;4.53;;;0.90;76.50;;;;;;4970552;28;20216;-70
2023/02/28 03:25:55;;;;;;;7.70;4.55;;;0.90;76.90;;;;;;4969057;28;20217;-72
2023/02/28 03:28:46;;;;;;;5.32;4.80;;;0.90;77.00;;;;;;4961424;28;20572;-70
2023/02/28 03:31:36;;;;;;;5.85;3.83;;;0.90;76.80;;;;;;4971056;28;20344;-72
2023/02/28 03:34:27;;;;;;;5.88;4.30;;;0.80;77.30;;;;;;4971558;28;20345;-71
2023/02/28 03:37:17;;;;;;;8.80;5.18;;;0.90;77.40;;;;;;4970629;28;20224;-71
2023/02/28 03:40:08;;;;;;;10.13;4.35;;;0.90;77.10;;;;;;4968173;28;20678;-71
2023/02/28 03:43:00;;;;;;;7.78;4.57;;;0.80;77.40;;;;;;4970158;28;20790;-71
2023/02/28 03:45:47;;;;;;;5.55;4.10;;;0.80;77.80;;;;;;4970067;28;20352;-71
2023/02/28 03:48:37;;;;;;;6.45;4.95;;;0.80;77.70;;;;;;4969289;28;20209;-71
2023/02/28 03:51:25;;;;;;;5.13;4.63;;;0.80;77.80;;;;;;4969891;28;20208;-71
2023/02/28 03:54:16;;;;;;;7.13;5.35;;;0.80;77.70;;;;;;4972552;28;20316;-72
2023/02/28 03:57:11;;;;;;;4.80;4.15;;;0.70;78.10;;;;;;4966491;28;20232;-71
2023/02/28 04:00:04;;;;;;;6.38;5.70;;;0.80;77.80;;;;;;4966755;28;20288;-71
2023/02/28 04:02:52;;;;;;;6.00;4.45;;;0.80;77.60;;;;;;4968070;28;20221;-71
2023/02/28 04:05:52;;;;;;;5.18;4.40;;;0.80;77.80;;;;;;4970224;28;20220;-71
2023/02/28 04:08:37;;;;;;;4.95;4.38;;;0.70;77.80;;;;;;4965113;28;20205;-71
2023/02/28 04:11:28;;;;;;;12.18;4.95;;;0.80;78.60;;;;;;4965889;28;20247;-71
2023/02/28 04:14:14;;;;;;;6.63;4.80;;;0.70;78.50;;;;;;4972033;28;20299;-71
2023/02/28 04:17:01;;;;;;;4.70;4.00;;;0.60;78.50;;;;;;4969747;28;20228;-71
2023/02/28 04:19:46;;;;;;;5.68;4.45;;;0.60;79.10;;;;;;4971389;28;20209;-71
2023/02/28 04:22:32;;;;;;;5.85;4.30;;;0.60;79.30;;;;;;4968407;28;20204;-71
2023/02/28 04:25:18;;;;;;;7.50;4.75;;;0.70;79.00;;;;;;4968001;28;20207;-71
2023/02/28 04:28:03;;;;;;;5.82;4.38;;;0.70;79.20;;;;;;4965872;28;20224;-71
2023/02/28 04:30:55;;;;;;;5.50;4.47;;;0.70;78.90;;;;;;4971064;28;20221;-72
2023/02/28 04:33:42;;;;;;;5.57;4.38;;;0.70;78.90;;;;;;4968106;28;20336;-71
2023/02/28 04:36:28;;;;;;;5.75;4.82;;;0.70;79.20;;;;;;4968126;28;20224;-72
2023/02/28 04:39:14;;;;;;;11.18;5.43;;;0.70;79.30;;;;;;4969229;28;20256;-71
2023/02/28 04:42:00;;;;;;;5.78;4.55;;;0.60;80.10;;;;;;4970352;28;20594;-72
2023/02/28 04:44:46;;;;;;;7.30;4.30;;;0.60;79.90;;;;;;4965125;28;20226;-71
2023/02/28 04:47:32;;;;;;;6.53;5.00;;;0.70;80.00;;;;;;4969169;28;20273;-71
2023/02/28 04:50:19;;;;;;;7.30;5.35;;;0.60;79.70;;;;;;4973218;28;20240;-71
2023/02/28 04:53:05;;;;;;;7.50;6.10;;;0.60;79.60;;;;;;4966298;28;20211;-72
2023/02/28 04:55:50;;;;;;;6.60;4.47;;;0.60;79.70;;;;;;4966583;28;20734;-70
2023/02/28 04:58:37;;;;;;;8.45;4.20;;;0.70;80.00;;;;;;4967536;28;20204;-71
2023/02/28 05:01:25;;;;;;;6.75;5.10;;;0.50;80.40;;;;;;4966072;28;20749;-71
2023/02/28 05:04:11;;;;;;;6.75;5.60;;;0.40;80.90;;;;;;4971558;28;20217;-71
2023/02/28 05:06:58;;;;;;;9.77;5.78;;;0.40;81.70;;;;;;4964272;28;20226;-71
2023/02/28 05:09:43;;;;;;;8.02;4.78;;;0.50;81.80;;;;;;4969725;28;20593;-71
2023/02/28 05:12:29;;;;;;;7.18;4.93;;;0.40;82.00;;;;;;4969746;28;20336;-71
2023/02/28 05:15:16;;;;;;;5.22;4.13;;;0.50;82.10;;;;;;4969270;28;20268;-71
2023/02/28 05:18:02;;;;;;;5.97;4.82;;;0.50;82.10;;;;;;4960754;28;20231;-71
2023/02/28 05:20:48;;;;;;;7.63;4.82;;;0.50;82.50;;;;;;4972833;28;20211;-70
2023/02/28 05:23:35;;;;;;;9.23;5.80;;;0.50;81.80;;;;;;4966722;28;20354;-71
2023/02/28 05:26:21;;;;;;;7.32;5.00;;;0.60;82.40;;;;;;4963830;28;20708;-71
2023/02/28 05:29:06;;;;;;;6.22;4.63;;;0.60;82.00;;;;;;4969251;28;20590;-72
2023/02/28 05:31:52;;;;;;;8.20;5.30;;;0.60;82.10;;;;;;4966598;28;20197;-71
2023/02/28 05:34:38;;;;;;;6.63;5.30;;;0.60;82.50;;;;;;4969193;28;20352;-70
2023/02/28 05:37:24;;;;;;;7.00;4.57;;;0.60;82.50;;;;;;4960218;28;20228;-71
2023/02/28 05:40:12;;;;;;;6.35;5.00;;;0.50;82.80;;;;;;4966549;28;20219;-71
2023/02/28 05:42:58;;;;;;;6.45;5.13;;;0.50;82.60;;;;;;4970870;28;20254;-71
2023/02/28 05:45:44;;;;;;;8.43;5.20;;;0.50;82.50;;;;;;4965007;28;20278;-72
2023/02/28 05:48:29;;;;;;;5.82;4.70;;;0.60;82.60;;;;;;4963839;28;20212;-71
2023/02/28 05:51:15;;;;;;;9.35;5.22;;;0.60;82.20;;;;;;4968210;28;20263;-72
2023/02/28 05:54:02;;;;;;;6.63;5.30;;;0.60;81.90;;;;;;4970370;28;20219;-72
2023/02/28 05:56:48;;;;;;;11.82;5.65;;;0.60;82.00;;;;;;4964928;28;20276;-72
2023/02/28 05:59:34;;;;;;;5.88;5.28;;;0.50;82.10;;;;;;4970542;28;20203;-72
2023/02/28 06:02:20;;;;;;;6.35;5.00;;;0.50;82.40;;;;;;4967933;28;20283;-72
2023/02/28 06:05:06;;;;;;;7.10;5.80;;;0.50;82.70;;;;;;4968109;28;20210;-72
2023/02/28 06:07:52;;;;;;;7.57;4.70;;;0.50;82.70;;;;;;4967446;28;20704;-71
2023/02/28 06:10:38;;;;;;;5.47;4.90;;;0.50;82.80;;;;;;4968693;28;20359;-72
2023/02/28 06:13:25;;;;;;;8.35;6.65;;;0.50;82.50;;;;;;4968672;28;20309;-72
2023/02/28 06:16:12;;;;;;;9.77;5.70;;;0.50;82.80;;;;;;4964596;28;20232;-72
2023/02/28 06:18:59;;;;;;;8.18;6.07;;;0.50;82.50;;;;;;4967603;28;20207;-71
2023/02/28 06:21:45;;;;;;;8.05;5.38;;;0.40;82.70;;;;;;4970300;28;20264;-72
2023/02/28 06:24:31;;;;;;;13.38;5.50;;;0.40;82.80;;;;;;4968076;28;20232;-71
2023/02/28 06:27:16;;;;;;;9.25;7.15;;;0.40;83.40;;;;;;4965777;28;20347;-72
2023/02/28 06:30:03;;;;;;;6.65;5.90;;;0.40;83.30;;;;;;4969543;28;20236;-71
2023/02/28 06:32:49;;;;;;;9.35;6.10;;;0.40;83.50;;;;;;4967550;28;20353;-71
2023/02/28 06:35:35;;;;;;;7.63;6.13;;;0.40;83.30;;;;;;4964695;28;20317;-72
2023/02/28 06:38:21;;;;;;;8.90;6.57;;;0.30;83.70;;;;;;4972432;28;20650;-71
2023/02/28 06:41:07;;;;;;;6.90;6.05;;;0.20;84.70;;;;;;4964850;28;20207;-72
2023/02/28 06:43:53;;;;;;;9.63;6.40;;;0.20;84.90;;;;;;4968328;28;20679;-72
2023/02/28 06:46:41;;;;;;;8.50;6.25;;;0.30;85.40;;;;;;4963876;28;20236;-72
2023/02/28 06:49:27;;;;;;;7.38;5.53;;;0.20;85.80;;;;;;4969899;28;20213;-71
2023/02/28 06:52:12;;;;;;;10.80;6.13;;;0.30;85.60;;;;;;4969241;28;20267;-72
2023/02/28 06:55:00;;;;;;;8.57;5.20;;;0.30;85.30;;;;;;4959128;28;20228;-73
2023/02/28 06:57:46;;;;;;;7.60;5.07;;;0.40;85.60;;;;;;4966571;28;20625;-72
2023/02/28 07:00:32;;;;;;;8.30;6.18;;;0.40;85.10;;;;;;4973775;28;20232;-72
2023/02/28 07:03:19;;;;;;;8.52;6.15;;;0.40;85.00;;;;;;4973801;28;20203;-72
2023/02/28 07:06:06;;;;;;;7.72;6.20;;;0.50;85.20;;;;;;4969412;28;20279;-72
2023/02/28 07:08:53;;;;;;;7.57;5.60;;;0.50;84.90;;;;;;4969868;28;20741;-71
2023/02/28 07:11:39;;;;;;;8.73;6.75;;;0.60;84.00;;;;;;4972667;28;20709;-72
2023/02/28 07:14:24;;;;;;;8.45;5.93;;;0.70;84.10;;;;;;4967851;28;20212;-73
2023/02/28 07:17:11;;;;;;;8.27;5.72;;;0.70;83.70;;;;;;4966131;28;20821;-71
2023/02/28 07:19:58;;;;;;;8.60;6.50;;;0.80;83.30;;;;;;4974185;28;20212;-71
2023/02/28 07:22:44;;;;;;;9.25;6.07;;;0.90;83.10;;;;;;4973637;28;20216;-71
2023/02/28 07:25:30;;;;;;;8.52;6.35;;;1.00;82.60;;;;;;4967743;28;20207;-71
2023/02/28 07:28:16;;;;;;;8.73;6.55;;;1.10;81.60;;;;;;4961829;28;20205;-70
2023/02/28 07:31:05;;;;;;;8.02;6.15;;;1.20;81.50;;;;;;4971634;28;20709;-71
2023/02/28 07:33:51;;;;;;;6.97;6.05;;;1.10;82.10;;;;;;4971979;28;20205;-71
2023/02/28 07:36:38;;;;;;;8.38;6.25;;;1.20;81.60;;;;;;4970560;28;20235;-71
2023/02/28 07:39:23;;;;;;;8.57;6.18;;;1.30;81.20;;;;;;4970679;28;20292;-71
2023/02/28 07:42:11;;;;;;;8.82;6.30;;;1.40;79.50;;;;;;4971706;28;20199;-71
2023/02/28 07:44:57;;;;;;;8.27;6.22;;;1.40;79.10;;;;;;4970296;28;20197;-71
2023/02/28 07:47:43;;;;;;;7.90;6.40;;;1.40;79.60;;;;;;4972579;28;20244;-71
2023/02/28 07:50:30;;;;;;;8.30;5.65;;;1.40;79.10;;;;;;4967452;28;20566;-71
2023/02/28 07:53:17;;;;;;;8.23;6.53;;;1.50;78.70;;;;;;4971912;28;20220;-71
2023/02/28 07:56:04;;;;;;;14.43;6.60;;;1.60;78.30;;;;;;4966448;28;20237;-71
2023/02/28 07:58:49;;;;;;;15.52;7.95;;;1.60;78.10;;;;;;4970194;28;20389;-72
2023/02/28 08:01:35;;;;;;;10.88;6.45;;;1.70;77.80;;;;;;4970757;28;20767;-72
2023/02/28 08:04:21;;;;;;;7.20;5.95;;;1.70;78.40;;;;;;4966054;28;20567;-72
2023/02/28 08:07:06;;;;;;;10.65;6.68;;;1.80;76.80;;;;;;4966837;28;20271;-72
2023/02/28 08:09:53;;;;;;;9.15;6.28;;;1.90;75.00;;;;;;4973017;28;20295;-72
2023/02/28 08:12:39;;;;;;;11.30;6.45;;;1.90;76.60;;;;;;4969970;28;20207;-72
2023/02/28 08:15:24;;;;;;;7.22;6.05;;;2.10;75.20;;;;;;4970171;28;20208;-72
2023/02/28 08:18:10;;;;;;;8.27;5.55;;;2.10;74.20;;;;;;4966954;28;20208;-72
2023/02/28 08:20:57;;;;;;;11.43;6.43;;;2.20;74.30;;;;;;4968967;28;20200;-72
2023/02/28 08:23:43;;;;;;;9.85;6.65;;;2.30;74.20;;;;;;4969315;28;20757;-72
2023/02/28 08:26:30;;;;;;;9.73;7.00;;;2.40;70.90;;;;;;4964659;28;20228;-72
2023/02/28 08:29:16;;;;;;;7.38;5.80;;;2.40;71.90;;;;;;4972642;28;20213;-72
2023/02/28 08:32:01;;;;;;;10.82;6.57;;;2.50;71.00;;;;;;4973378;28;20826;-72
2023/02/28 08:34:47;;;;;;;14.35;7.50;;;2.60;70.10;;;;;;4963522;28;20254;-72
2023/02/28 08:37:33;;;;;;;9.38;6.90;;;2.70;68.80;;;;;;4971102;28;20229;-72
2023/02/28 08:40:18;;;;;;;8.75;5.95;;;2.70;68.00;;;;;;4973111;28;20225;-72
2023/02/28 08:43:06;;;;;;;10.93;7.75;;;2.80;68.40;;;;;;4973346;28;20212;-72
2023/02/28 08:45:52;;;;;;;10.85;7.50;;;2.80;68.20;;;;;;4965099;28;20333;-72
2023/02/28 08:48:38;;;;;;;8.35;6.47;;;2.90;65.80;;;;;;4969529;28;20336;-72
2023/02/28 08:51:26;;;;;;;8.85;6.07;;;2.90;63.40;;;;;;4971634;28;20236;-72
2023/02/28 08:54:12;;;;;;;9.90;6.13;;;2.90;63.70;;;;;;4968809;28;20207;-72
2023/02/28 08:56:58;;;;;;;8.63;6.30;;;2.90;62.00;;;;;;4972972;28;20598;-72
2023/02/28 08:59:45;;;;;;;11.25;7.22;;;2.90;62.40;;;;;;4967931;28;20233;-72
2023/02/28 09:02:31;;;;;;;8.85;6.25;;;3.10;63.30;;;;;;4970737;28;20211;-72
2023/02/28 09:05:17;;;;;;;10.32;6.43;;;3.20;62.20;;;;;;4966831;28;20209;-72
2023/02/28 09:08:02;;;;;;;11.30;6.65;;;3.20;60.60;;;;;;4971476;28;20715;-72
2023/02/28 09:10:49;;;;;;;11.45;7.03;;;3.30;58.30;;;;;;4968707;28;20233;-72
2023/02/28 09:13:35;;;;;;;8.45;6.97;;;3.30;56.50;;;;;;4967947;28;20568;-72
2023/02/28 09:16:22;;;;;;;8.55;6.40;;;3.30;56.40;;;;;;4973506;28;20227;-72
2023/02/28 09:19:11;;;;;;;9.57;6.18;;;3.40;55.20;;;;;;4979641;28;20693;-72
2023/02/28 09:21:56;;;;;;;8.88;6.30;;;3.50;53.80;;;;;;4968331;28;20212;-72
2023/02/28 09:24:44;;;;;;;10.77;7.15;;;3.60;53.30;;;;;;4963439;28;20678;-72
2023/02/28 09:27:30;;;;;;;13.27;7.20;;;3.70;51.20;;;;;;4969321;28;20227;-72
2023/02/28 09:30:16;;;;;;;7.55;6.13;;;3.80;50.80;;;;;;4971896;28;20349;-72
2023/02/28 09:33:03;;;;;;;12.57;6.57;;;3.80;50.80;;;;;;4967755;28;20203;-72
2023/02/28 09:35:49;;;;;;;9.88;6.68;;;3.90;51.00;;;;;;4969702;28;20676;-72
2023/02/28 09:38:35;;;;;;;8.32;6.35;;;4.10;49.60;;;;;;4969201;28;20892;-73
2023/02/28 09:41:23;;;;;;;12.35;8.05;;;4.20;47.40;;;;;;4967876;28;20435;-73
2023/02/28 09:44:14;;;;;;;8.82;7.47;;;4.30;47.50;;;;;;4961238;28;20217;-73
2023/02/28 09:47:06;;;;;;;9.35;7.18;;;4.40;46.00;;;;;;4967003;28;20357;-73
2023/02/28 09:49:53;;;;;;;11.73;7.55;;;4.40;45.60;;;;;;4961653;28;20216;-73
2023/02/28 09:52:39;;;;;;;10.65;7.18;;;4.40;46.70;;;;;;4965917;28;20298;-73
2023/02/28 09:55:34;;;;;;;8.38;7.07;;;4.50;45.00;;;;;;4965923;28;20293;-73
2023/02/28 09:58:24;;;;;;;11.30;7.55;;;4.60;45.60;;;;;;4967273;28;20205;-72
2023/02/28 10:01:19;;;;;;;12.43;6.55;;;4.60;44.30;;;;;;4965563;28;20241;-73
2023/02/28 10:04:12;;;;;;;8.15;6.30;;;4.60;44.20;;;;;;4960547;28;20213;-72
2023/02/28 10:06:59;;;;;;;10.00;7.40;;;4.60;43.20;;;;;;4969037;28;20306;-72
2023/02/28 10:09:47;;;;;;;9.43;6.80;;;4.70;44.00;;;;;;4962133;28;20264;-73
2023/02/28 10:12:34;;;;;;;9.30;6.95;;;4.80;44.20;;;;;;4966384;28;20650;-74
2023/02/28 10:15:22;;;;;;;8.57;7.18;;;5.00;43.00;;;;;;4966251;28;20273;-73
2023/02/28 10:18:13;;;;;;;10.18;6.63;;;5.10;42.50;;;;;;4968608;28;20591;-73
2023/02/28 10:21:00;;;;;;;12.50;7.25;;;5.20;41.90;;;;;;4969757;28;20368;-73
2023/02/28 10:23:49;;;;;;;10.18;7.18;;;5.30;40.00;;;;;;4960435;28;20209;-73
2023/02/28 10:26:34;;;;;;;8.45;6.78;;;5.30;39.30;;;;;;4965147;28;20236;-73
2023/02/28 10:29:20;;;;;;;10.60;7.50;;;5.30;39.20;;;;;;4959655;28;20587;-73
2023/02/28 10:32:06;;;;;;;12.80;8.60;;;5.20;40.80;;;;;;4969656;28;20227;-73
2023/02/28 10:34:56;;;;;;;10.25;7.10;;;5.00;38.80;;;;;;4970931;28;20212;-71
2023/02/28 10:37:43;;;;;;;10.32;7.95;;;4.80;40.10;;;;;;4965313;28;20359;-72
2023/02/28 10:40:36;;;;;;;11.75;7.97;;;4.60;41.80;;;;;;4968091;28;20881;-73
2023/02/28 10:43:24;;;;;;;11.55;7.80;;;4.70;42.90;;;;;;4969609;28;20686;-73
2023/02/28 10:46:25;;;;;;;11.88;7.95;;;4.80;40.90;;;;;;4972266;28;20236;-73
2023/02/28 10:49:18;;;;;;;12.10;7.80;;;4.90;42.20;;;;;;4965978;28;20212;-72
2023/02/28 10:52:04;;;;;;;10.10;7.20;;;5.00;40.70;;;;;;4970802;28;21077;-73
2023/02/28 10:54:49;;;;;;;11.70;7.18;;;5.20;39.30;;;;;;4966194;28;20439;-72
2023/02/28 10:57:36;;;;;;;11.40;7.55;;;5.40;39.20;;;;;;4965198;28;20710;-72
2023/02/28 11:00:25;;;;;;;11.50;7.30;;;5.70;38.40;;;;;;4966931;28;20205;-72
2023/02/28 11:03:25;;;;;;;9.38;7.75;;;5.60;35.50;;;;;;4969835;28;20197;-72
2023/02/28 11:06:16;;;;;;;8.30;7.15;;;5.30;37.30;;;;;;4972156;28;20316;-73
2023/02/28 11:09:05;;;;;;;28.17;8.85;;;4.90;37.50;;;;;;4968080;28;20205;-72
2023/02/28 11:11:52;;;;;;;10.20;7.93;;;4.70;38.50;;;;;;4973186;28;20393;-73
2023/02/28 11:14:49;;;;;;;10.95;7.88;;;4.80;38.60;;;;;;4968549;28;20291;-73
2023/02/28 11:17:36;;;;;;;12.50;8.57;;;4.90;39.50;;;;;;4968111;28;20307;-73
2023/02/28 11:20:24;;;;;;;11.07;7.95;;;5.30;41.20;;;;;;4967002;28;20217;-72
2023/02/28 11:23:15;;;;;;;12.98;8.27;;;5.80;38.70;;;;;;4974539;28;20204;-72
2023/02/28 11:26:04;;;;;;;9.07;7.32;;;6.30;37.00;;;;;;4974428;28;20576;-73
2023/02/28 11:29:07;;;;;;;8.13;6.97;;;6.50;33.50;;;;;;4962044;28;20607;-72
2023/02/28 11:32:14;;;;;;;14.27;7.63;;;6.50;33.80;;;;;;4972543;28;20969;-73
2023/02/28 11:35:14;;;;;;;8.90;7.30;;;6.50;32.80;;;;;;4971264;28;20248;-73
2023/02/28 11:38:00;;;;;;;9.00;6.90;;;6.50;33.50;;;;;;4973083;28;20232;-73
2023/02/28 11:40:51;;;;;;;11.20;7.83;;;6.70;32.20;;;;;;4974660;28;20432;-73
2023/02/28 11:43:51;;;;;;;13.02;7.43;;;6.60;31.30;;;;;;4972986;28;20474;-73
2023/02/28 11:46:42;;;;;;;10.70;8.52;;;6.60;30.00;;;;;;4972868;28;20237;-72
2023/02/28 11:49:39;;;;;;;10.87;8.23;;;6.60;31.00;;;;;;4966264;28;20280;-73
2023/02/28 11:52:37;;;;;;;11.40;8.63;;;6.90;32.30;;;;;;4965207;28;20476;-72
2023/02/28 11:55:28;;;;;;;8.57;7.00;;;7.10;31.00;;;;;;4970101;28;20461;-72
2023/02/28 11:58:36;;;;;;;10.27;8.13;;;7.20;30.00;;;;;;4968726;28;20818;-73
2023/02/28 12:01:36;;;;;;;13.98;7.63;;;7.30;29.20;;;;;;4966383;28;20457;-72
2023/02/28 12:04:29;;;;;;;12.40;7.55;;;7.30;29.10;;;;;;4964906;28;20699;-73
2023/02/28 12:07:25;;;;;;;9.23;7.83;;;7.30;29.40;;;;;;4971727;28;20710;-72
2023/02/28 12:10:21;;;;;;;10.43;8.10;;;7.50;29.60;;;;;;4969399;28;20493;-72
2023/02/28 12:13:18;;;;;;;10.97;8.03;;;7.30;28.00;;;;;;4973647;28;20627;-72
2023/02/28 12:16:33;;;;;;;11.07;8.27;;;7.20;29.30;;;;;;4973365;28;20571;-72
2023/02/28 12:19:22;;;;;;;11.90;8.40;;;7.40;29.30;;;;;;4969206;28;20456;-73
2023/02/28 12:22:28;;;;;;;15.17;8.23;;;7.60;28.80;;;;;;4972182;28;20952;-73
2023/02/28 12:25:50;;;;;;;12.80;8.77;;;7.50;28.20;;;;;;4973688;28;20429;-72
2023/02/28 12:28:42;;;;;;;11.13;8.03;;;7.50;28.20;;;;;;4972021;28;20799;-72
2023/02/28 12:31:34;;;;;;;9.90;8.70;;;7.40;28.40;;;;;;4971351;28;20440;-72
2023/02/28 12:34:23;;;;;;;9.27;7.40;;;7.50;28.20;;;;;;4967583;28;20457;-72
2023/02/28 12:37:18;;;;;;;11.40;8.07;;;7.70;28.80;;;;;;4970256;28;20472;-72
2023/02/28 12:40:11;;;;;;;14.20;8.50;;;7.70;28.30;;;;;;4970432;28;20697;-72
2023/02/28 12:43:00;;;;;;;13.97;7.37;;;7.80;27.20;;;;;;4969749;28;20445;-72
2023/02/28 12:45:49;;;;;;;9.10;7.63;;;7.80;27.50;;;;;;4968668;28;20565;-72
2023/02/28 12:48:41;;;;;;;10.87;8.30;;;7.90;27.30;;;;;;4963555;28;20823;-72
2023/02/28 12:51:27;;;;;;;11.80;7.90;;;7.90;26.60;;;;;;4964721;28;20452;-72
2023/02/28 12:54:22;;;;;;;9.23;8.07;;;7.70;26.90;;;;;;4968468;28;20422;-72
2023/02/28 12:57:14;;;;;;;13.90;7.70;;;7.80;28.10;;;;;;4968189;28;20520;-72
2023/02/28 13:00:04;;;;;;;13.57;7.90;;;7.90;27.10;;;;;;4969111;28;20452;-72
2023/02/28 13:03:13;;;;;;;13.83;8.07;;;8.00;26.30;;;;;;4965657;28;20793;-72
2023/02/28 13:06:17;;;;;;;12.23;8.60;;;8.20;27.00;;;;;;4969720;28;20946;-72
2023/02/28 13:09:10;;;;;;;12.77;7.87;;;8.40;26.10;;;;;;4964384;28;20590;-72
2023/02/28 13:11:57;;;;;;;13.97;7.93;;;8.60;26.10;;;;;;4973101;28;20569;-72
2023/02/28 13:14:44;;;;;;;12.53;7.53;;;8.50;24.70;;;;;;4966908;28;20424;-72
2023/02/28 13:17:30;;;;;;;9.23;7.17;;;8.50;25.90;;;;;;4966052;28;20860;-72
2023/02/28 13:20:19;;;;;;;16.90;8.23;;;8.50;26.90;;;;;;4968223;28;20455;-72
2023/02/28 13:23:05;;;;;;;10.07;8.07;;;8.50;25.90;;;;;;4970814;28;20399;-72
2023/02/28 13:25:54;;;;;;;11.93;8.57;;;8.60;25.80;;;;;;4972026;28;20433;-72
2023/02/28 13:29:23;;;;;;;12.57;9.27;;;8.70;25.20;;;;;;4964109;28;20993;-72
2023/02/28 13:32:40;;;;;;;12.73;8.60;;;8.60;24.80;;;;;;4970681;28;20484;-72
2023/02/28 13:35:45;;;;;;;9.80;8.10;;;8.40;25.80;;;;;;4972129;28;21043;-72
2023/02/28 13:38:49;;;;;;;13.33;8.50;;;8.40;25.80;;;;;;4967087;28;20822;-72
2023/02/28 13:41:48;;;;;;;9.47;7.47;;;8.50;25.80;;;;;;4966022;28;20823;-71
2023/02/28 13:45:12;;;;;;;12.13;8.10;;;8.40;25.00;;;;;;4966323;28;20506;-72
2023/02/28 13:48:02;;;;;;;11.80;8.80;;;8.30;25.10;;;;;;4968189;28;20476;-73
2023/02/28 13:50:48;;;;;;;30.27;9.80;;;8.10;26.40;;;;;;4970826;28;20473;-73
2023/02/28 13:53:51;;;;;;;12.37;9.07;;;8.20;26.00;;;;;;4969699;28;20624;-74
2023/02/28 13:56:46;;;;;;;10.23;7.80;;;8.10;26.00;;;;;;4969941;28;20488;-74
2023/02/28 13:59:37;;;;;;;16.37;8.80;;;8.10;26.30;;;;;;4965512;28;20460;-72
2023/02/28 14:02:48;;;;;;;12.30;8.70;;;8.30;25.80;;;;;;4964376;28;20565;-74
2023/02/28 14:05:36;;;;;;;16.63;8.83;;;8.50;25.40;;;;;;4963877;28;20516;-73
2023/02/28 14:08:23;;;;;;;9.73;7.67;;;8.60;25.50;;;;;;4969980;28;20456;-73
2023/02/28 14:11:24;;;;;;;8.60;7.40;;;8.50;24.50;;;;;;4975463;28;20456;-73
2023/02/28 14:14:31;;;;;;;8.20;6.97;;;8.50;25.20;;;;;;4977055;28;20481;-74
2023/02/28 14:17:18;;;;;;;9.93;7.53;;;8.90;24.10;;;;;;4977396;28;20444;-73
2023/02/28 14:20:05;;;;;;;12.03;7.83;;;8.90;23.70;;;;;;4972572;28;20432;-73
2023/02/28 14:22:58;;;;;;;10.00;7.77;;;8.90;25.30;;;;;;4978122;28;20941;-73
2023/02/28 14:25:54;;;;;;;10.50;7.97;;;8.90;23.80;;;;;;4972161;28;20431;-73
2023/02/28 14:29:02;;;;;;;12.13;8.20;;;9.20;23.60;;;;;;4963682;28;20539;-73
2023/02/28 14:31:58;;;;;;;11.23;7.90;;;9.40;23.40;;;;;;4973795;28;20437;-74
2023/02/28 14:34:53;;;;;;;12.90;8.43;;;9.40;23.30;;;;;;4966324;28;20424;-74
2023/02/28 14:37:42;;;;;;;13.47;8.17;;;9.50;23.00;;;;;;4973251;28;20627;-72
2023/02/28 14:40:31;;;;;;;12.17;8.77;;;9.50;22.70;;;;;;4973644;28;21038;-73
2023/02/28 14:43:22;;;;;;;10.30;7.87;;;9.40;23.00;;;;;;4972913;28;21311;-73
2023/02/28 14:46:08;;;;;;;11.97;8.50;;;9.10;22.60;;;;;;4972165;28;20479;-74
2023/02/28 14:48:54;;;;;;;12.90;8.30;;;8.60;23.60;;;;;;4972504;28;20551;-73
2023/02/28 14:51:41;;;;;;;11.13;8.27;;;8.10;24.70;;;;;;4973175;28;20819;-73